Kapitan Antipov — UROW — position and weather

sailwx.info

Track history (hours):
 
Tides and Currents Weather Stations Pressure Air Temp Water Temp Dewpoint Dewpoint Depression Visibility Wind Speed Wind Dir Waves Ship Positions

Kapitan Antipov

Last reported at 2017-Dec-12 06:34 UTC. Time now 2018-Jan-21 03:09 UTC.
Position N 44°23' E 028°03'.
Warning: this ship's position is 39 days out of date.

Length 177 m; draft 2.3 m.

Type: Ship. MMSI: 272037300.

Date/timePositionNaut miles runAvg speedWind from/ knotsBaromVisibWave heightAir tempDewpointWater temp
2017-Dec-12 06:34N 44°23' E 028°03'7 0.8
2017-Dec-11 22:47N 44°17' E 028°05'2 5.6
2017-Dec-11 22:30N 44°16' E 028°07'3 5.8
2017-Dec-11 22:00N 44°16' E 028°11'3 5.7
2017-Dec-11 21:30N 44°15' E 028°15'3 5.7
2017-Dec-11 21:01N 44°15' E 028°19'3 5.2
2017-Dec-11 20:30N 44°14' E 028°22'3 5.7
2017-Dec-11 20:00N 44°11' E 028°24'5 5.6
2017-Dec-11 19:07N 44°07' E 028°27'1 5.6
2017-Dec-11 18:51N 44°06' E 028°28'3 5.6
2017-Dec-11 18:20N 44°06' E 028°32'2 5.8
2017-Dec-11 18:00N 44°06' E 028°35'2 3.3
2017-Dec-11 17:30N 44°06' E 028°37'0 0.7
2017-Dec-11 17:00N 44°06' E 028°38'0 0.0
2017-Dec-11 16:30N 44°06' E 028°38'0 0.0
2017-Dec-11 16:00N 44°06' E 028°38'0 0.0
2017-Dec-11 15:30N 44°06' E 028°38'1 2.2
2017-Dec-11 15:00N 44°07' E 028°39'1 1.1
2017-Dec-11 14:30N 44°07' E 028°39'0 0.0
2017-Dec-11 14:00N 44°07' E 028°39'0 0.0
2017-Dec-11 13:30N 44°07' E 028°39'0 0.0
2017-Dec-11 13:00N 44°07' E 028°39'0 0.0
2017-Dec-11 12:30N 44°07' E 028°39'0 0.0
2017-Dec-11 12:00N 44°07' E 028°39'0 0.0
2017-Dec-11 11:30N 44°07' E 028°39'0 0.0
2017-Dec-11 11:00N 44°07' E 028°39'1 1.1
2017-Dec-11 10:30N 44°07' E 028°39'0 0.0
2017-Dec-11 10:00N 44°07' E 028°39'0 0.0
2017-Dec-11 09:30N 44°07' E 028°39'0 0.0
2017-Dec-11 09:00N 44°07' E 028°39'0 0.0
2017-Dec-11 08:30N 44°07' E 028°39'0 0.0
2017-Dec-11 08:00N 44°07' E 028°39'0 0.0
2017-Dec-11 07:31N 44°07' E 028°39'0 0.0
2017-Dec-11 07:01N 44°07' E 028°39'0 0.0
2017-Dec-11 06:31N 44°07' E 028°39'0 0.0
2017-Dec-11 06:01N 44°07' E 028°39'0 0.0
2017-Dec-11 05:30N 44°07' E 028°39'0 0.0
2017-Dec-11 05:00N 44°07' E 028°39'0 0.0
2017-Dec-11 04:30N 44°07' E 028°39'0 0.0
2017-Dec-11 04:01N 44°07' E 028°39'0 0.0
2017-Dec-11 03:31N 44°07' E 028°39'0 0.0
2017-Dec-11 03:01N 44°07' E 028°39'0 0.0
2017-Dec-11 02:31N 44°07' E 028°39'0 0.0
2017-Dec-11 02:01N 44°07' E 028°39'0 0.0
2017-Dec-11 01:31N 44°07' E 028°39'0 0.0
2017-Dec-11 01:00N 44°07' E 028°39'0 0.0
2017-Dec-11 00:31N 44°07' E 028°39'0 0.0
2017-Dec-11 00:01N 44°07' E 028°39'0 0.0
2017-Dec-10 23:31N 44°07' E 028°39'0 0.0
2017-Dec-10 23:01N 44°07' E 028°39'0 0.0
2017-Dec-10 22:31N 44°07' E 028°39'0 0.0
2017-Dec-10 22:01N 44°07' E 028°39'0 0.0
2017-Dec-10 21:31N 44°07' E 028°39'1 2.9
2017-Dec-10 21:01N 44°08' E 028°39'0 0.0
2017-Dec-10 20:31N 44°08' E 028°39'0 0.0
2017-Dec-10 20:01N 44°08' E 028°39'0 0.0
2017-Dec-10 19:30N 44°08' E 028°39'0 0.0
2017-Dec-10 19:01N 44°08' E 028°39'0 0.0
2017-Dec-10 18:31N 44°08' E 028°39'0 0.0
2017-Dec-10 18:01N 44°08' E 028°39'0 0.0
2017-Dec-10 17:31N 44°08' E 028°39'0 0.0
2017-Dec-10 17:00N 44°08' E 028°39'0 0.0
2017-Dec-10 16:30N 44°08' E 028°39'0 0.0
2017-Dec-10 16:00N 44°08' E 028°39'0 0.0
2017-Dec-10 15:31N 44°08' E 028°39'0 0.0
2017-Dec-10 15:01N 44°08' E 028°39'0 0.0
2017-Dec-10 14:31N 44°08' E 028°39'0 0.0
2017-Dec-10 14:00N 44°08' E 028°39'0 0.0
2017-Dec-10 13:31N 44°08' E 028°39'0 0.0
2017-Dec-10 13:01N 44°08' E 028°39'0 0.0
2017-Dec-10 12:31N 44°08' E 028°39'0 0.0
2017-Dec-10 12:01N 44°08' E 028°39'0 0.0
2017-Dec-10 11:31N 44°08' E 028°39'0 0.0
2017-Dec-10 11:01N 44°08' E 028°39'0 0.0
2017-Dec-10 10:31N 44°08' E 028°39'0 0.0
2017-Dec-10 10:01N 44°08' E 028°39'0 0.0
2017-Dec-10 09:31N 44°08' E 028°39'0 0.9
2017-Dec-10 09:01N 44°08' E 028°39'1 0.0
2017-Dec-08 07:57N 44°07' E 028°39'0 0.0
2017-Dec-08 07:30N 44°07' E 028°39'0 0.0
2017-Dec-08 07:00N 44°07' E 028°39'0 0.0
2017-Dec-08 06:30N 44°07' E 028°39'0 0.0
2017-Dec-08 06:00N 44°07' E 028°39'0 0.0
2017-Dec-08 05:30N 44°07' E 028°39'0 0.0
2017-Dec-08 05:00N 44°07' E 028°39'0 0.0
2017-Dec-08 04:30N 44°07' E 028°39'0 0.0
2017-Dec-08 04:00N 44°07' E 028°39'0 0.0
2017-Dec-08 03:30N 44°07' E 028°39'0 0.0
2017-Dec-08 03:00N 44°07' E 028°39'0 0.0
2017-Dec-08 02:30N 44°07' E 028°39'0 0.0
2017-Dec-08 02:00N 44°07' E 028°39'0 0.0
2017-Dec-08 01:30N 44°07' E 028°39'0 0.0
2017-Dec-08 01:00N 44°07' E 028°39'0 0.0
2017-Dec-08 00:30N 44°07' E 028°39'0 0.0
2017-Dec-08 00:00N 44°07' E 028°39'0 0.0
2017-Dec-07 23:30N 44°07' E 028°39'0 0.0
2017-Dec-07 23:00N 44°07' E 028°39'0 0.0
2017-Dec-07 22:30N 44°07' E 028°39'0 0.0
2017-Dec-07 22:00N 44°07' E 028°39'0 0.0
2017-Dec-07 21:30N 44°07' E 028°39'0 0.0
2017-Dec-07 21:00N 44°07' E 028°39'0 0.0
2017-Dec-07 20:30N 44°07' E 028°39'0 0.0
2017-Dec-07 20:00N 44°07' E 028°39'0 0.0
2017-Dec-07 19:30N 44°07' E 028°39'0 0.0
2017-Dec-07 19:00N 44°07' E 028°39'0 0.0
2017-Dec-07 18:30N 44°07' E 028°39'0 0.0
2017-Dec-07 18:00N 44°07' E 028°39'0 0.0
2017-Dec-07 17:30N 44°07' E 028°39'0 0.0
2017-Dec-07 17:00N 44°07' E 028°39'0 0.0
2017-Dec-07 16:30N 44°07' E 028°39'0 0.0
2017-Dec-07 16:00N 44°07' E 028°39'0 0.0
2017-Dec-07 15:30N 44°07' E 028°39'0 0.0
2017-Dec-07 15:00N 44°07' E 028°39'0 0.0
2017-Dec-07 14:30N 44°07' E 028°39'0 0.0
2017-Dec-07 14:00N 44°07' E 028°39'0 0.0
2017-Dec-07 13:30N 44°07' E 028°39'0 0.0
2017-Dec-07 13:00N 44°07' E 028°39'0 0.0
2017-Dec-07 12:30N 44°07' E 028°39'0 0.0
2017-Dec-07 12:00N 44°07' E 028°39'0 0.0
2017-Dec-07 11:30N 44°07' E 028°39'0 0.0
2017-Dec-07 11:00N 44°07' E 028°39'0 0.0
2017-Dec-07 10:30N 44°07' E 028°39'0 0.0
2017-Dec-07 10:00N 44°07' E 028°39'0 0.0
2017-Dec-07 09:30N 44°07' E 028°39'0 0.0
2017-Dec-07 09:00N 44°07' E 028°39'0 0.0
2017-Dec-07 08:30N 44°07' E 028°39'0 0.0
2017-Dec-07 08:00N 44°07' E 028°39'0 0.0
2017-Dec-07 07:30N 44°07' E 028°39'0 0.0
2017-Dec-07 07:00N 44°07' E 028°39'0 0.0
2017-Dec-07 06:30N 44°07' E 028°39'0 0.0
2017-Dec-07 06:00N 44°07' E 028°39'0 0.0
2017-Dec-07 05:30N 44°07' E 028°39'0 0.0
2017-Dec-07 05:00N 44°07' E 028°39'0 0.0
2017-Dec-07 04:30N 44°07' E 028°39'0 0.0
2017-Dec-07 04:00N 44°07' E 028°39'0 0.0
2017-Dec-07 03:30N 44°07' E 028°39'0 0.0
2017-Dec-07 03:00N 44°07' E 028°39'0 0.0
2017-Dec-07 02:30N 44°07' E 028°39'0 0.0
2017-Dec-07 02:00N 44°07' E 028°39'0 0.0
2017-Dec-07 01:30N 44°07' E 028°39'0 0.0
2017-Dec-07 01:00N 44°07' E 028°39'0 0.0
2017-Dec-07 00:30N 44°07' E 028°39'0 0.0
2017-Dec-07 00:00N 44°07' E 028°39'0 0.0
2017-Dec-06 23:30N 44°07' E 028°39'0 0.0
2017-Dec-06 23:00N 44°07' E 028°39'0 0.0
2017-Dec-06 22:30N 44°07' E 028°39'0 0.0
2017-Dec-06 22:00N 44°07' E 028°39'0 0.0
2017-Dec-06 21:30N 44°07' E 028°39'0 0.0
2017-Dec-06 21:00N 44°07' E 028°39'  
2017-Dec-04 10:30N 44°07' E 028°39'0 0.0
2017-Dec-04 10:00N 44°07' E 028°39'0 0.0
2017-Dec-04 09:30N 44°07' E 028°39'0 0.0
2017-Dec-04 09:00N 44°07' E 028°39'0 0.0
2017-Dec-04 08:30N 44°07' E 028°39'0 0.0
2017-Dec-04 08:00N 44°07' E 028°39'0 0.0
2017-Dec-04 07:30N 44°07' E 028°39'0 0.0
2017-Dec-04 07:00N 44°07' E 028°39'0 0.0
2017-Dec-04 06:30N 44°07' E 028°39'0 0.0
2017-Dec-04 06:00N 44°07' E 028°39'0 0.0
2017-Dec-04 05:30N 44°07' E 028°39'0 0.0
2017-Dec-04 05:00N 44°07' E 028°39'0 0.0
2017-Dec-04 04:30N 44°07' E 028°39'0 0.0
2017-Dec-04 04:00N 44°07' E 028°39'0 0.0
2017-Dec-04 03:30N 44°07' E 028°39'0 0.0
2017-Dec-04 03:00N 44°07' E 028°39'0 0.0
2017-Dec-04 02:30N 44°07' E 028°39'0 0.0
2017-Dec-04 02:00N 44°07' E 028°39'0 0.0
2017-Dec-04 01:30N 44°07' E 028°39'0 0.0
2017-Dec-04 01:00N 44°07' E 028°39'0 0.0
2017-Dec-04 00:30N 44°07' E 028°39'0 0.0
2017-Dec-04 00:00N 44°07' E 028°39'0 0.0
2017-Dec-03 23:30N 44°07' E 028°39'0 0.0
2017-Dec-03 23:00N 44°07' E 028°39'0 0.0
2017-Dec-03 22:30N 44°07' E 028°39'0 0.0
2017-Dec-03 22:00N 44°07' E 028°39'0 0.0
2017-Dec-03 21:30N 44°07' E 028°39'0 0.0
2017-Dec-03 21:00N 44°07' E 028°39'0 0.0
2017-Dec-03 20:30N 44°07' E 028°39'0 0.0
2017-Dec-03 20:00N 44°07' E 028°39'0 0.0
2017-Dec-03 19:30N 44°07' E 028°39'0 0.0
2017-Dec-03 19:00N 44°07' E 028°39'0 0.0
2017-Dec-03 18:30N 44°07' E 028°39'0 0.0
2017-Dec-03 18:00N 44°07' E 028°39'0 0.0
2017-Dec-03 17:30N 44°07' E 028°39'0 0.0
2017-Dec-03 17:00N 44°07' E 028°39'0 0.0
2017-Dec-03 16:30N 44°07' E 028°39'0 0.0
2017-Dec-03 16:00N 44°07' E 028°39'0 0.0
2017-Dec-03 15:30N 44°07' E 028°39'0 0.0
2017-Dec-03 15:00N 44°07' E 028°39'0 0.0
2017-Dec-03 14:30N 44°07' E 028°39'0 0.0
2017-Dec-03 14:00N 44°07' E 028°39'0 0.0
2017-Dec-03 13:30N 44°07' E 028°39'0 0.0
2017-Dec-03 13:00N 44°07' E 028°39'0 0.0
2017-Dec-03 12:30N 44°07' E 028°39'0 0.0
2017-Dec-03 12:00N 44°07' E 028°39'0 0.0
2017-Dec-03 11:30N 44°07' E 028°39'0 0.0
2017-Dec-03 11:00N 44°07' E 028°39'0 0.0
2017-Dec-03 10:30N 44°07' E 028°39'0 0.0
2017-Dec-03 10:00N 44°07' E 028°39'0 0.0
2017-Dec-03 09:30N 44°07' E 028°39'0 0.0
2017-Dec-03 09:00N 44°07' E 028°39'0 0.0
2017-Dec-03 08:30N 44°07' E 028°39'0 0.0
2017-Dec-03 08:00N 44°07' E 028°39'0 0.0
2017-Dec-03 07:30N 44°07' E 028°39'0 0.0
2017-Dec-03 07:00N 44°07' E 028°39'0 0.0
2017-Dec-03 06:30N 44°07' E 028°39'0 0.0
2017-Dec-03 06:00N 44°07' E 028°39'0 0.0
2017-Dec-03 05:30N 44°07' E 028°39'0 0.0
2017-Dec-03 05:00N 44°07' E 028°39'0 0.0
2017-Dec-03 04:30N 44°07' E 028°39'0 0.0
2017-Dec-03 04:00N 44°07' E 028°39'0 0.0
2017-Dec-03 03:30N 44°07' E 028°39'0 0.0
2017-Dec-03 03:00N 44°07' E 028°39'0 0.0
2017-Dec-03 02:30N 44°07' E 028°39'0 0.0
2017-Dec-03 02:00N 44°07' E 028°39'0 0.0
2017-Dec-03 01:30N 44°07' E 028°39'0 0.0
2017-Dec-03 01:00N 44°07' E 028°39'0 0.0
2017-Dec-03 00:30N 44°07' E 028°39'0 0.0
2017-Dec-03 00:00N 44°07' E 028°39'0 0.0
2017-Dec-02 23:30N 44°07' E 028°39'0 0.0
2017-Dec-02 23:00N 44°07' E 028°39'0 0.0
2017-Dec-02 22:30N 44°07' E 028°39'0 0.0
2017-Dec-02 22:00N 44°07' E 028°39'0 0.0
2017-Dec-02 21:30N 44°07' E 028°39'0 0.0
2017-Dec-02 21:00N 44°07' E 028°39'0 0.0
2017-Dec-02 20:30N 44°07' E 028°39'0 0.0
2017-Dec-02 20:00N 44°07' E 028°39'0 0.0
2017-Dec-02 19:30N 44°07' E 028°39'0 0.0
2017-Dec-02 19:00N 44°07' E 028°39'0 0.0
2017-Dec-02 18:30N 44°07' E 028°39'0 0.0
2017-Dec-02 18:01N 44°07' E 028°39'0 0.0
2017-Dec-02 17:30N 44°07' E 028°39'0 0.0
2017-Dec-02 17:00N 44°07' E 028°39'0 0.0
2017-Dec-02 16:30N 44°07' E 028°39'0 0.0
2017-Dec-02 16:00N 44°07' E 028°39'0 0.0
2017-Dec-02 15:30N 44°07' E 028°39'0 0.0
2017-Dec-02 15:00N 44°07' E 028°39'0 0.0
2017-Dec-02 14:30N 44°07' E 028°39'0 0.0
2017-Dec-02 14:00N 44°07' E 028°39'0 0.0
2017-Dec-02 13:30N 44°07' E 028°39'0 0.0
2017-Dec-02 13:00N 44°07' E 028°39'0 0.0
2017-Dec-02 12:30N 44°07' E 028°39'0 0.0
2017-Dec-02 12:00N 44°07' E 028°39'0 0.0
2017-Dec-02 11:30N 44°07' E 028°39'0 0.0
2017-Dec-02 11:00N 44°07' E 028°39'0 0.0
2017-Dec-02 10:30N 44°07' E 028°39'0 0.0
2017-Dec-02 10:00N 44°07' E 028°39'0 0.0
2017-Dec-02 09:30N 44°07' E 028°39'0 0.0
2017-Dec-02 09:00N 44°07' E 028°39'0 0.0
2017-Dec-02 08:30N 44°07' E 028°39'0 0.0
2017-Dec-02 08:00N 44°07' E 028°39'0 0.0
2017-Dec-02 07:30N 44°07' E 028°39'0 0.0
2017-Dec-02 07:00N 44°07' E 028°39'  
Track history (hours):
 
Tides and Currents Weather Stations Pressure Air Temp Water Temp Dewpoint Dewpoint Depression Visibility Wind Speed Wind Dir Waves Ship Positions

Kapitan Antipov

Last reported at 2017-Dec-12 06:34 UTC. Time now 2018-Jan-21 03:09 UTC.
Position N 44°23' E 028°03'.
Warning: this ship's position is 39 days out of date.

Length 177 m; draft 2.3 m.

Type: Ship. MMSI: 272037300.

Date/timePositionNaut miles runAvg speedWind from/ knotsBaromVisibWave heightAir tempDewpointWater temp
2017-Dec-12 06:34N 44°23' E 028°03'7 0.8
2017-Dec-11 22:47N 44°17' E 028°05'2 5.6
2017-Dec-11 22:30N 44°16' E 028°07'3 5.8
2017-Dec-11 22:00N 44°16' E 028°11'3 5.7
2017-Dec-11 21:30N 44°15' E 028°15'3 5.7
2017-Dec-11 21:01N 44°15' E 028°19'3 5.2
2017-Dec-11 20:30N 44°14' E 028°22'3 5.7
2017-Dec-11 20:00N 44°11' E 028°24'5 5.6
2017-Dec-11 19:07N 44°07' E 028°27'1 5.6
2017-Dec-11 18:51N 44°06' E 028°28'3 5.6
2017-Dec-11 18:20N 44°06' E 028°32'2 5.8
2017-Dec-11 18:00N 44°06' E 028°35'2 3.3
2017-Dec-11 17:30N 44°06' E 028°37'0 0.7
2017-Dec-11 17:00N 44°06' E 028°38'0 0.0
2017-Dec-11 16:30N 44°06' E 028°38'0 0.0
2017-Dec-11 16:00N 44°06' E 028°38'0 0.0
2017-Dec-11 15:30N 44°06' E 028°38'1 2.2
2017-Dec-11 15:00N 44°07' E 028°39'1 1.1
2017-Dec-11 14:30N 44°07' E 028°39'0 0.0
2017-Dec-11 14:00N 44°07' E 028°39'0 0.0
2017-Dec-11 13:30N 44°07' E 028°39'0 0.0
2017-Dec-11 13:00N 44°07' E 028°39'0 0.0
2017-Dec-11 12:30N 44°07' E 028°39'0 0.0
2017-Dec-11 12:00N 44°07' E 028°39'0 0.0
2017-Dec-11 11:30N 44°07' E 028°39'0 0.0
2017-Dec-11 11:00N 44°07' E 028°39'1 1.1
2017-Dec-11 10:30N 44°07' E 028°39'0 0.0
2017-Dec-11 10:00N 44°07' E 028°39'0 0.0
2017-Dec-11 09:30N 44°07' E 028°39'0 0.0
2017-Dec-11 09:00N 44°07' E 028°39'0 0.0
2017-Dec-11 08:30N 44°07' E 028°39'0 0.0
2017-Dec-11 08:00N 44°07' E 028°39'0 0.0
2017-Dec-11 07:31N 44°07' E 028°39'0 0.0
2017-Dec-11 07:01N 44°07' E 028°39'0 0.0
2017-Dec-11 06:31N 44°07' E 028°39'0 0.0
2017-Dec-11 06:01N 44°07' E 028°39'0 0.0
2017-Dec-11 05:30N 44°07' E 028°39'0 0.0
2017-Dec-11 05:00N 44°07' E 028°39'0 0.0
2017-Dec-11 04:30N 44°07' E 028°39'0 0.0
2017-Dec-11 04:01N 44°07' E 028°39'0 0.0
2017-Dec-11 03:31N 44°07' E 028°39'0 0.0
2017-Dec-11 03:01N 44°07' E 028°39'0 0.0
2017-Dec-11 02:31N 44°07' E 028°39'0 0.0
2017-Dec-11 02:01N 44°07' E 028°39'0 0.0
2017-Dec-11 01:31N 44°07' E 028°39'0 0.0
2017-Dec-11 01:00N 44°07' E 028°39'0 0.0
2017-Dec-11 00:31N 44°07' E 028°39'0 0.0
2017-Dec-11 00:01N 44°07' E 028°39'0 0.0
2017-Dec-10 23:31N 44°07' E 028°39'0 0.0
2017-Dec-10 23:01N 44°07' E 028°39'0 0.0
2017-Dec-10 22:31N 44°07' E 028°39'0 0.0
2017-Dec-10 22:01N 44°07' E 028°39'0 0.0
2017-Dec-10 21:31N 44°07' E 028°39'1 2.9
2017-Dec-10 21:01N 44°08' E 028°39'0 0.0
2017-Dec-10 20:31N 44°08' E 028°39'0 0.0
2017-Dec-10 20:01N 44°08' E 028°39'0 0.0
2017-Dec-10 19:30N 44°08' E 028°39'0 0.0
2017-Dec-10 19:01N 44°08' E 028°39'0 0.0
2017-Dec-10 18:31N 44°08' E 028°39'0 0.0
2017-Dec-10 18:01N 44°08' E 028°39'0 0.0
2017-Dec-10 17:31N 44°08' E 028°39'0 0.0
2017-Dec-10 17:00N 44°08' E 028°39'0 0.0
2017-Dec-10 16:30N 44°08' E 028°39'0 0.0
2017-Dec-10 16:00N 44°08' E 028°39'0 0.0
2017-Dec-10 15:31N 44°08' E 028°39'0 0.0
2017-Dec-10 15:01N 44°08' E 028°39'0 0.0
2017-Dec-10 14:31N 44°08' E 028°39'0 0.0
2017-Dec-10 14:00N 44°08' E 028°39'0 0.0
2017-Dec-10 13:31N 44°08' E 028°39'0 0.0
2017-Dec-10 13:01N 44°08' E 028°39'0 0.0
2017-Dec-10 12:31N 44°08' E 028°39'0 0.0
2017-Dec-10 12:01N 44°08' E 028°39'0 0.0
2017-Dec-10 11:31N 44°08' E 028°39'0 0.0
2017-Dec-10 11:01N 44°08' E 028°39'0 0.0
2017-Dec-10 10:31N 44°08' E 028°39'0 0.0
2017-Dec-10 10:01N 44°08' E 028°39'0 0.0
2017-Dec-10 09:31N 44°08' E 028°39'0 0.9
2017-Dec-10 09:01N 44°08' E 028°39'1 0.0
2017-Dec-08 07:57N 44°07' E 028°39'0 0.0
2017-Dec-08 07:30N 44°07' E 028°39'0 0.0
2017-Dec-08 07:00N 44°07' E 028°39'0 0.0
2017-Dec-08 06:30N 44°07' E 028°39'0 0.0
2017-Dec-08 06:00N 44°07' E 028°39'0 0.0
2017-Dec-08 05:30N 44°07' E 028°39'0 0.0
2017-Dec-08 05:00N 44°07' E 028°39'0 0.0
2017-Dec-08 04:30N 44°07' E 028°39'0 0.0
2017-Dec-08 04:00N 44°07' E 028°39'0 0.0
2017-Dec-08 03:30N 44°07' E 028°39'0 0.0
2017-Dec-08 03:00N 44°07' E 028°39'0 0.0
2017-Dec-08 02:30N 44°07' E 028°39'0 0.0
2017-Dec-08 02:00N 44°07' E 028°39'0 0.0
2017-Dec-08 01:30N 44°07' E 028°39'0 0.0
2017-Dec-08 01:00N 44°07' E 028°39'0 0.0
2017-Dec-08 00:30N 44°07' E 028°39'0 0.0
2017-Dec-08 00:00N 44°07' E 028°39'0 0.0
2017-Dec-07 23:30N 44°07' E 028°39'0 0.0
2017-Dec-07 23:00N 44°07' E 028°39'0 0.0
2017-Dec-07 22:30N 44°07' E 028°39'0 0.0
2017-Dec-07 22:00N 44°07' E 028°39'0 0.0
2017-Dec-07 21:30N 44°07' E 028°39'0 0.0
2017-Dec-07 21:00N 44°07' E 028°39'0 0.0
2017-Dec-07 20:30N 44°07' E 028°39'0 0.0
2017-Dec-07 20:00N 44°07' E 028°39'0 0.0
2017-Dec-07 19:30N 44°07' E 028°39'0 0.0
2017-Dec-07 19:00N 44°07' E 028°39'0 0.0
2017-Dec-07 18:30N 44°07' E 028°39'0 0.0
2017-Dec-07 18:00N 44°07' E 028°39'0 0.0
2017-Dec-07 17:30N 44°07' E 028°39'0 0.0
2017-Dec-07 17:00N 44°07' E 028°39'0 0.0
2017-Dec-07 16:30N 44°07' E 028°39'0 0.0
2017-Dec-07 16:00N 44°07' E 028°39'0 0.0
2017-Dec-07 15:30N 44°07' E 028°39'0 0.0
2017-Dec-07 15:00N 44°07' E 028°39'0 0.0
2017-Dec-07 14:30N 44°07' E 028°39'0 0.0
2017-Dec-07 14:00N 44°07' E 028°39'0 0.0
2017-Dec-07 13:30N 44°07' E 028°39'0 0.0
2017-Dec-07 13:00N 44°07' E 028°39'0 0.0
2017-Dec-07 12:30N 44°07' E 028°39'0 0.0
2017-Dec-07 12:00N 44°07' E 028°39'0 0.0
2017-Dec-07 11:30N 44°07' E 028°39'0 0.0
2017-Dec-07 11:00N 44°07' E 028°39'0 0.0
2017-Dec-07 10:30N 44°07' E 028°39'0 0.0
2017-Dec-07 10:00N 44°07' E 028°39'0 0.0
2017-Dec-07 09:30N 44°07' E 028°39'0 0.0
2017-Dec-07 09:00N 44°07' E 028°39'0 0.0
2017-Dec-07 08:30N 44°07' E 028°39'0 0.0
2017-Dec-07 08:00N 44°07' E 028°39'0 0.0
2017-Dec-07 07:30N 44°07' E 028°39'0 0.0
2017-Dec-07 07:00N 44°07' E 028°39'0 0.0
2017-Dec-07 06:30N 44°07' E 028°39'0 0.0
2017-Dec-07 06:00N 44°07' E 028°39'0 0.0
2017-Dec-07 05:30N 44°07' E 028°39'0 0.0
2017-Dec-07 05:00N 44°07' E 028°39'0 0.0
2017-Dec-07 04:30N 44°07' E 028°39'0 0.0
2017-Dec-07 04:00N 44°07' E 028°39'0 0.0
2017-Dec-07 03:30N 44°07' E 028°39'0 0.0
2017-Dec-07 03:00N 44°07' E 028°39'0 0.0
2017-Dec-07 02:30N 44°07' E 028°39'0 0.0
2017-Dec-07 02:00N 44°07' E 028°39'0 0.0
2017-Dec-07 01:30N 44°07' E 028°39'0 0.0
2017-Dec-07 01:00N 44°07' E 028°39'0 0.0
2017-Dec-07 00:30N 44°07' E 028°39'0 0.0
2017-Dec-07 00:00N 44°07' E 028°39'0 0.0
2017-Dec-06 23:30N 44°07' E 028°39'0 0.0
2017-Dec-06 23:00N 44°07' E 028°39'0 0.0
2017-Dec-06 22:30N 44°07' E 028°39'0 0.0
2017-Dec-06 22:00N 44°07' E 028°39'0 0.0
2017-Dec-06 21:30N 44°07' E 028°39'0 0.0
2017-Dec-06 21:00N 44°07' E 028°39'  
2017-Dec-04 10:30N 44°07' E 028°39'0 0.0
2017-Dec-04 10:00N 44°07' E 028°39'0 0.0
2017-Dec-04 09:30N 44°07' E 028°39'0 0.0
2017-Dec-04 09:00N 44°07' E 028°39'0 0.0
2017-Dec-04 08:30N 44°07' E 028°39'0 0.0
2017-Dec-04 08:00N 44°07' E 028°39'0 0.0
2017-Dec-04 07:30N 44°07' E 028°39'0 0.0
2017-Dec-04 07:00N 44°07' E 028°39'0 0.0
2017-Dec-04 06:30N 44°07' E 028°39'0 0.0
2017-Dec-04 06:00N 44°07' E 028°39'0 0.0
2017-Dec-04 05:30N 44°07' E 028°39'0 0.0
2017-Dec-04 05:00N 44°07' E 028°39'0 0.0
2017-Dec-04 04:30N 44°07' E 028°39'0 0.0
2017-Dec-04 04:00N 44°07' E 028°39'0 0.0
2017-Dec-04 03:30N 44°07' E 028°39'0 0.0
2017-Dec-04 03:00N 44°07' E 028°39'0 0.0
2017-Dec-04 02:30N 44°07' E 028°39'0 0.0
2017-Dec-04 02:00N 44°07' E 028°39'0 0.0
2017-Dec-04 01:30N 44°07' E 028°39'0 0.0
2017-Dec-04 01:00N 44°07' E 028°39'0 0.0
2017-Dec-04 00:30N 44°07' E 028°39'0 0.0
2017-Dec-04 00:00N 44°07' E 028°39'0 0.0
2017-Dec-03 23:30N 44°07' E 028°39'0 0.0
2017-Dec-03 23:00N 44°07' E 028°39'0 0.0
2017-Dec-03 22:30N 44°07' E 028°39'0 0.0
2017-Dec-03 22:00N 44°07' E 028°39'0 0.0
2017-Dec-03 21:30N 44°07' E 028°39'0 0.0
2017-Dec-03 21:00N 44°07' E 028°39'0 0.0
2017-Dec-03 20:30N 44°07' E 028°39'0 0.0
2017-Dec-03 20:00N 44°07' E 028°39'0 0.0
2017-Dec-03 19:30N 44°07' E 028°39'0 0.0
2017-Dec-03 19:00N 44°07' E 028°39'0 0.0
2017-Dec-03 18:30N 44°07' E 028°39'0 0.0
2017-Dec-03 18:00N 44°07' E 028°39'0 0.0
2017-Dec-03 17:30N 44°07' E 028°39'0 0.0
2017-Dec-03 17:00N 44°07' E 028°39'0 0.0
2017-Dec-03 16:30N 44°07' E 028°39'0 0.0
2017-Dec-03 16:00N 44°07' E 028°39'0 0.0
2017-Dec-03 15:30N 44°07' E 028°39'0 0.0
2017-Dec-03 15:00N 44°07' E 028°39'0 0.0
2017-Dec-03 14:30N 44°07' E 028°39'0 0.0
2017-Dec-03 14:00N 44°07' E 028°39'0 0.0
2017-Dec-03 13:30N 44°07' E 028°39'0 0.0
2017-Dec-03 13:00N 44°07' E 028°39'0 0.0
2017-Dec-03 12:30N 44°07' E 028°39'0 0.0
2017-Dec-03 12:00N 44°07' E 028°39'0 0.0
2017-Dec-03 11:30N 44°07' E 028°39'0 0.0
2017-Dec-03 11:00N 44°07' E 028°39'0 0.0
2017-Dec-03 10:30N 44°07' E 028°39'0 0.0
2017-Dec-03 10:00N 44°07' E 028°39'0 0.0
2017-Dec-03 09:30N 44°07' E 028°39'0 0.0
2017-Dec-03 09:00N 44°07' E 028°39'0 0.0
2017-Dec-03 08:30N 44°07' E 028°39'0 0.0
2017-Dec-03 08:00N 44°07' E 028°39'0 0.0
2017-Dec-03 07:30N 44°07' E 028°39'0 0.0
2017-Dec-03 07:00N 44°07' E 028°39'0 0.0
2017-Dec-03 06:30N 44°07' E 028°39'0 0.0
2017-Dec-03 06:00N 44°07' E 028°39'0 0.0
2017-Dec-03 05:30N 44°07' E 028°39'0 0.0
2017-Dec-03 05:00N 44°07' E 028°39'0 0.0
2017-Dec-03 04:30N 44°07' E 028°39'0 0.0
2017-Dec-03 04:00N 44°07' E 028°39'0 0.0
2017-Dec-03 03:30N 44°07' E 028°39'0 0.0
2017-Dec-03 03:00N 44°07' E 028°39'0 0.0
2017-Dec-03 02:30N 44°07' E 028°39'0 0.0
2017-Dec-03 02:00N 44°07' E 028°39'0 0.0
2017-Dec-03 01:30N 44°07' E 028°39'0 0.0
2017-Dec-03 01:00N 44°07' E 028°39'0 0.0
2017-Dec-03 00:30N 44°07' E 028°39'0 0.0
2017-Dec-03 00:00N 44°07' E 028°39'0 0.0
2017-Dec-02 23:30N 44°07' E 028°39'0 0.0
2017-Dec-02 23:00N 44°07' E 028°39'0 0.0
2017-Dec-02 22:30N 44°07' E 028°39'0 0.0
2017-Dec-02 22:00N 44°07' E 028°39'0 0.0
2017-Dec-02 21:30N 44°07' E 028°39'0 0.0
2017-Dec-02 21:00N 44°07' E 028°39'0 0.0
2017-Dec-02 20:30N 44°07' E 028°39'0 0.0
2017-Dec-02 20:00N 44°07' E 028°39'0 0.0
2017-Dec-02 19:30N 44°07' E 028°39'0 0.0
2017-Dec-02 19:00N 44°07' E 028°39'0 0.0
2017-Dec-02 18:30N 44°07' E 028°39'0 0.0
2017-Dec-02 18:01N 44°07' E 028°39'0 0.0
2017-Dec-02 17:30N 44°07' E 028°39'0 0.0
2017-Dec-02 17:00N 44°07' E 028°39'0 0.0
2017-Dec-02 16:30N 44°07' E 028°39'0 0.0
2017-Dec-02 16:00N 44°07' E 028°39'0 0.0
2017-Dec-02 15:30N 44°07' E 028°39'0 0.0
2017-Dec-02 15:00N 44°07' E 028°39'0 0.0
2017-Dec-02 14:30N 44°07' E 028°39'0 0.0
2017-Dec-02 14:00N 44°07' E 028°39'0 0.0
2017-Dec-02 13:30N 44°07' E 028°39'0 0.0
2017-Dec-02 13:00N 44°07' E 028°39'0 0.0
2017-Dec-02 12:30N 44°07' E 028°39'0 0.0
2017-Dec-02 12:00N 44°07' E 028°39'0 0.0
2017-Dec-02 11:30N 44°07' E 028°39'0 0.0
2017-Dec-02 11:00N 44°07' E 028°39'0 0.0
2017-Dec-02 10:30N 44°07' E 028°39'0 0.0
2017-Dec-02 10:00N 44°07' E 028°39'0 0.0
2017-Dec-02 09:30N 44°07' E 028°39'0 0.0
2017-Dec-02 09:00N 44°07' E 028°39'0 0.0
2017-Dec-02 08:30N 44°07' E 028°39'0 0.0
2017-Dec-02 08:00N 44°07' E 028°39'0 0.0
2017-Dec-02 07:30N 44°07' E 028°39'0 0.0
2017-Dec-02 07:00N 44°07' E 028°39'  

Dump ship's entire track history